Time;durP1;ratioP1;P1;durP2;ratioP2;P2;SDS_P1;SDS_P2;PMS_P1;PMS_P2;Temp;Humidity;BMP_temperature;BMP_pressure;BME280_temperature;BME280_humidity;BME280_pressure;Samples;Min_cycle;Max_cycle;Signal;HPM_P1;HPM_P2
2022/04/10 00:02:58;;;;;;;12.63;7.40;;;23.30;39.60;;;;;;6125429;28;81619;-67
2022/04/10 00:05:59;;;;;;;13.10;7.30;;;23.30;39.60;;;;;;6112909;28;81705;-67
2022/04/10 00:08:59;;;;;;;13.43;7.88;;;23.30;39.60;;;;;;6112844;28;80630;-68
2022/04/10 00:12:01;;;;;;;12.13;6.65;;;23.30;39.60;;;;;;6114400;28;80686;-67
2022/04/10 00:15:01;;;;;;;14.15;7.25;;;23.30;39.50;;;;;;6136756;28;81087;-67
2022/04/10 00:18:02;;;;;;;12.65;7.10;;;23.30;39.40;;;;;;6109737;28;81089;-66
2022/04/10 00:21:02;;;;;;;12.88;6.82;;;23.30;39.60;;;;;;6112513;28;80467;-65
2022/04/10 00:24:03;;;;;;;15.40;7.45;;;23.30;39.60;;;;;;6121453;28;80752;-65
2022/04/10 00:27:04;;;;;;;15.25;7.75;;;23.30;39.60;;;;;;6118810;28;80592;-66
2022/04/10 00:30:05;;;;;;;12.55;7.05;;;23.30;39.70;;;;;;6126985;28;84785;-65
2022/04/10 00:33:06;;;;;;;12.23;6.90;;;23.20;39.60;;;;;;6132428;28;80642;-67
2022/04/10 00:36:06;;;;;;;10.13;6.20;;;23.20;39.60;;;;;;6134894;28;83655;-67
2022/04/10 00:39:07;;;;;;;12.18;6.60;;;23.20;39.60;;;;;;6135514;28;81025;-67
2022/04/10 00:42:08;;;;;;;12.32;6.80;;;23.30;39.60;;;;;;6136295;28;80328;-67
2022/04/10 00:45:08;;;;;;;11.38;6.88;;;23.20;39.60;;;;;;6135968;28;80544;-66
2022/04/10 00:48:09;;;;;;;11.65;6.65;;;23.20;39.70;;;;;;6135537;28;79926;-67
2022/04/10 00:54:30;;;;;;;10.25;6.25;;;23.20;39.70;;;;;;6121794;28;80840;-66
2022/04/10 00:57:31;;;;;;;11.77;6.88;;;23.20;39.70;;;;;;6135595;28;80466;-66
2022/04/10 01:00:31;;;;;;;12.32;7.03;;;23.20;39.70;;;;;;6113101;28;80325;-67
2022/04/10 01:03:32;;;;;;;13.23;6.30;;;23.20;39.70;;;;;;6110026;28;83177;-65
2022/04/10 01:06:33;;;;;;;12.88;6.00;;;23.20;39.70;;;;;;6111467;28;80593;-67
2022/04/10 01:09:34;;;;;;;13.10;6.47;;;23.20;39.70;;;;;;6118861;28;82696;-67
2022/04/10 01:12:34;;;;;;;11.65;6.05;;;23.20;39.70;;;;;;6135035;28;80366;-65
2022/04/10 01:15:39;;;;;;;9.15;5.25;;;23.20;39.60;;;;;;6117900;28;84609;-68
2022/04/10 01:18:40;;;;;;;10.10;5.65;;;23.20;39.70;;;;;;6129286;28;82744;-68
2022/04/10 01:21:46;;;;;;;10.07;5.97;;;23.20;39.70;;;;;;6109600;28;83228;-65
2022/04/10 01:24:47;;;;;;;7.20;4.80;;;23.20;39.70;;;;;;6128152;28;83240;-67
2022/04/10 01:27:51;;;;;;;10.43;5.15;;;23.20;39.60;;;;;;6132795;28;81714;-68
2022/04/10 01:30:57;;;;;;;;;;;23.20;39.50;;;;;;6133465;28;83178;-67
2022/04/10 01:33:58;;;;;;;8.68;4.50;;;23.20;39.50;;;;;;6135375;28;81879;-68
2022/04/10 01:36:59;;;;;;;10.80;6.07;;;23.20;39.40;;;;;;6113393;28;80465;-67
2022/04/10 01:40:00;;;;;;;8.90;5.00;;;23.20;40.10;;;;;;6121221;28;82303;-66
2022/04/10 01:43:01;;;;;;;9.95;5.75;;;23.20;39.40;;;;;;6109548;28;83392;-66
2022/04/10 01:46:02;;;;;;;12.10;5.65;;;23.20;39.50;;;;;;6128680;28;83284;-67
2022/04/10 01:49:02;;;;;;;9.27;5.35;;;23.20;39.50;;;;;;6133316;28;83214;-65
2022/04/10 01:52:03;;;;;;;9.50;5.47;;;23.20;39.40;;;;;;6133181;28;83131;-64
2022/04/10 01:55:04;;;;;;;7.95;4.70;;;23.20;39.60;;;;;;6133309;28;82806;-67
2022/04/10 01:58:05;;;;;;;9.07;5.03;;;23.20;39.50;;;;;;6132876;28;83229;-65
2022/04/10 02:01:06;;;;;;;7.13;4.28;;;23.10;39.30;;;;;;6133327;28;82930;-65
2022/04/10 02:04:06;;;;;;;9.27;4.32;;;23.20;39.40;;;;;;6133868;28;81614;-65
2022/04/10 02:07:07;;;;;;;8.32;4.63;;;23.20;39.50;;;;;;6132714;28;82774;-65
2022/04/10 02:10:08;;;;;;;6.63;4.20;;;23.20;39.40;;;;;;6132751;28;82973;-66
2022/04/10 02:13:09;;;;;;;9.27;4.53;;;23.10;39.40;;;;;;6132888;28;82817;-65
2022/04/10 02:16:11;;;;;;;9.95;4.38;;;23.10;39.40;;;;;;6132763;28;82975;-65
2022/04/10 02:19:11;;;;;;;8.60;4.22;;;23.10;39.40;;;;;;6134293;28;80439;-66
2022/04/10 02:22:12;;;;;;;6.05;3.90;;;23.10;39.40;;;;;;6132534;28;82755;-66
2022/04/10 02:25:12;;;;;;;6.43;3.55;;;23.10;39.40;;;;;;6132660;28;83334;-66
2022/04/10 02:28:13;;;;;;;6.30;3.97;;;23.10;39.40;;;;;;6134206;28;80210;-67
2022/04/10 02:31:13;;;;;;;6.97;3.97;;;23.10;39.30;;;;;;6132586;28;82020;-67
2022/04/10 02:34:14;;;;;;;7.30;4.28;;;23.10;39.30;;;;;;6132595;28;82137;-67
2022/04/10 02:37:15;;;;;;;7.28;4.03;;;23.10;39.40;;;;;;6132559;28;81945;-66
2022/04/10 02:40:16;;;;;;;6.53;3.67;;;23.10;39.40;;;;;;6129405;28;81387;-66
2022/04/10 02:43:17;;;;;;;6.55;3.78;;;23.10;39.50;;;;;;6136605;28;82904;-64
2022/04/10 02:46:20;;;;;;;6.90;3.78;;;23.10;39.40;;;;;;6136390;28;83360;-67
2022/04/10 02:49:21;;;;;;;7.72;4.00;;;23.10;39.30;;;;;;6136550;28;83582;-68
2022/04/10 02:52:22;;;;;;;8.52;4.28;;;23.10;39.40;;;;;;6136313;28;83461;-67
2022/04/10 02:55:24;;;;;;;7.28;4.10;;;23.10;39.40;;;;;;6136491;28;82092;-67
2022/04/10 02:58:26;;;;;;;6.88;3.55;;;23.10;39.50;;;;;;6136041;28;82897;-67
2022/04/10 03:01:26;;;;;;;6.45;3.58;;;23.10;39.50;;;;;;6136267;28;82895;-68
2022/04/10 03:04:27;;;;;;;7.45;4.30;;;23.10;39.50;;;;;;6136218;28;80335;-68
2022/04/10 03:07:28;;;;;;;7.50;4.28;;;23.10;39.70;;;;;;6118461;28;82850;-69
2022/04/10 03:10:29;;;;;;;7.93;3.33;;;23.10;39.70;;;;;;6114508;28;80447;-68
2022/04/10 03:13:31;;;;;;;5.43;3.25;;;23.10;39.80;;;;;;6136477;28;82679;-68
2022/04/10 03:16:31;;;;;;;6.88;3.78;;;23.20;40.70;;;;;;6127870;28;82156;-68
2022/04/10 03:19:32;;;;;;;6.72;3.67;;;23.20;39.80;;;;;;6115797;28;80473;-68
2022/04/10 03:22:33;;;;;;;6.15;3.40;;;23.20;39.10;;;;;;6120219;28;83245;-65
2022/04/10 03:25:33;;;;;;;6.45;4.00;;;23.20;38.80;;;;;;6112054;28;83363;-68
2022/04/10 03:28:34;;;;;;;6.03;3.58;;;23.20;38.40;;;;;;6134811;28;83369;-67
2022/04/10 03:31:35;;;;;;;5.40;3.78;;;23.30;38.20;;;;;;6134174;28;82226;-68
2022/04/10 03:34:35;;;;;;;8.30;3.97;;;23.40;38.10;;;;;;6115861;28;83960;-68
2022/04/10 03:37:36;;;;;;;5.68;3.55;;;23.40;37.90;;;;;;6125383;28;80810;-68
2022/04/10 03:40:36;;;;;;;7.85;3.95;;;23.40;37.90;;;;;;6128082;28;81729;-67
2022/04/10 03:43:37;;;;;;;5.10;3.35;;;23.40;37.80;;;;;;6128747;28;83478;-67
2022/04/10 03:46:38;;;;;;;6.03;3.45;;;23.40;37.80;;;;;;6113469;28;80017;-67
2022/04/10 03:49:39;;;;;;;6.05;3.20;;;23.50;37.70;;;;;;6096069;28;83177;-69
2022/04/10 03:52:40;;;;;;;5.70;3.75;;;23.50;37.60;;;;;;6119493;28;83356;-69
2022/04/10 03:55:40;;;;;;;6.47;4.10;;;23.50;37.40;;;;;;6113143;28;80493;-69
2022/04/10 03:58:41;;;;;;;8.43;4.18;;;23.50;37.30;;;;;;6129843;28;83296;-68
2022/04/10 04:01:42;;;;;;;6.90;3.83;;;23.50;37.20;;;;;;6132848;28;80599;-67
2022/04/10 04:04:45;;;;;;;8.07;3.67;;;23.60;37.20;;;;;;6120481;28;80797;-70
2022/04/10 04:07:48;;;;;;;7.30;4.30;;;23.60;36.90;;;;;;6129903;28;83063;-68
2022/04/10 04:10:48;;;;;;;7.15;4.00;;;23.60;36.70;;;;;;6135412;28;83386;-68
2022/04/10 04:13:49;;;;;;;6.22;3.90;;;23.60;36.50;;;;;;6134011;28;81719;-68
2022/04/10 04:16:50;;;;;;;7.57;4.22;;;23.60;36.40;;;;;;6134780;28;80500;-68
2022/04/10 04:19:51;;;;;;;7.30;4.07;;;23.60;36.20;;;;;;6116277;28;82281;-68
2022/04/10 04:22:54;;;;;;;7.13;4.25;;;23.60;36.30;;;;;;6128857;28;82949;-69
2022/04/10 04:25:55;;;;;;;6.32;3.88;;;23.70;36.50;;;;;;6134016;28;82773;-68
2022/04/10 04:28:55;;;;;;;6.32;3.55;;;23.70;36.70;;;;;;6135008;28;82668;-69
2022/04/10 04:31:57;;;;;;;5.75;3.58;;;23.70;36.50;;;;;;6134498;28;83720;-69
2022/04/10 04:34:58;;;;;;;5.35;3.50;;;23.80;36.70;;;;;;6134283;28;82076;-69
2022/04/10 04:38:00;;;;;;;6.68;4.22;;;23.80;36.70;;;;;;6134172;28;81073;-69
2022/04/10 04:41:01;;;;;;;7.35;3.70;;;23.80;36.80;;;;;;6134860;28;80782;-72
2022/04/10 04:44:02;;;;;;;10.80;3.80;;;23.80;37.10;;;;;;6134422;28;83090;-66
2022/04/10 04:47:02;;;;;;;7.75;3.72;;;23.80;36.80;;;;;;6134925;28;82506;-66
2022/04/10 04:50:03;;;;;;;11.05;4.30;;;23.80;36.60;;;;;;6134530;28;81884;-72
2022/04/10 04:53:09;;;;;;;10.20;4.00;;;23.80;36.40;;;;;;6128725;28;82647;-69
2022/04/10 04:56:10;;;;;;;8.02;3.75;;;23.80;36.40;;;;;;6134820;28;83251;-70
2022/04/10 04:59:14;;;;;;;7.10;3.90;;;23.80;36.30;;;;;;6133136;28;83775;-66
2022/04/10 05:02:15;;;;;;;8.20;4.10;;;23.90;36.40;;;;;;6127167;28;82997;-66
2022/04/10 05:05:15;;;;;;;8.07;3.65;;;23.80;36.50;;;;;;6122943;28;82300;-63
2022/04/10 05:08:19;;;;;;;8.50;3.97;;;23.90;36.70;;;;;;6108727;28;81846;-63
2022/04/10 05:11:20;;;;;;;10.20;3.83;;;23.90;37.00;;;;;;6107732;28;83123;-63
2022/04/10 05:14:22;;;;;;;13.82;4.78;;;23.90;37.30;;;;;;6109955;28;82086;-64
2022/04/10 05:17:26;;;;;;;12.00;4.47;;;23.90;37.50;;;;;;6106926;28;83607;-65
2022/04/10 05:20:28;;;;;;;10.40;4.75;;;23.90;37.70;;;;;;6123650;28;82111;-63
2022/04/10 05:23:40;;;;;;;9.57;4.68;;;23.90;39.10;;;;;;6133759;28;83121;-63
2022/04/10 05:26:47;;;;;;;7.22;4.15;;;23.90;39.30;;;;;;6134019;28;83333;-64
2022/04/10 05:29:48;;;;;;;6.78;4.15;;;23.90;40.60;;;;;;6123287;28;82200;-63
2022/04/10 05:32:49;;;;;;;7.03;4.00;;;23.90;40.90;;;;;;6126809;28;82917;-63
2022/04/10 05:35:52;;;;;;;11.30;3.90;;;23.90;40.70;;;;;;6121610;28;83570;-63
2022/04/10 05:38:53;;;;;;;7.88;3.85;;;23.90;41.60;;;;;;6125633;28;82348;-63
2022/04/10 05:41:57;;;;;;;6.22;3.92;;;23.90;42.80;;;;;;6113121;28;87816;-65
2022/04/10 05:44:58;;;;;;;7.00;3.78;;;23.90;42.20;;;;;;6119525;28;81357;-64
2022/04/10 05:47:58;;;;;;;9.20;3.72;;;23.90;41.90;;;;;;6134873;28;80409;-64
2022/04/10 05:51:03;;;;;;;11.45;3.83;;;23.90;41.30;;;;;;6119160;28;82440;-65
2022/04/10 05:54:07;;;;;;;6.93;3.97;;;23.90;40.60;;;;;;6132771;28;82239;-65
2022/04/10 05:57:16;;;;;;;5.72;3.35;;;23.90;40.60;;;;;;6132560;28;82617;-65
2022/04/10 06:00:16;;;;;;;7.82;3.90;;;23.90;40.80;;;;;;6134831;28;80315;-66
2022/04/10 06:03:24;;;;;;;6.55;3.92;;;23.90;41.10;;;;;;6132932;28;82767;-63
2022/04/10 06:06:27;;;;;;;8.70;3.88;;;23.90;40.40;;;;;;6116730;28;82375;-62
2022/04/10 06:09:35;;;;;;;6.15;3.67;;;23.90;40.40;;;;;;6120939;28;81461;-63
2022/04/10 06:12:36;;;;;;;9.15;4.15;;;23.90;40.10;;;;;;6129976;28;80254;-63
2022/04/10 06:15:37;;;;;;;8.02;4.35;;;24.00;40.30;;;;;;6132165;28;81283;-62
2022/04/10 06:18:37;;;;;;;8.10;4.55;;;23.90;40.30;;;;;;6134243;28;81934;-63
2022/04/10 06:21:40;;;;;;;7.63;4.47;;;23.90;40.30;;;;;;6130009;28;83171;-63
2022/04/10 06:24:41;;;;;;;10.15;4.57;;;24.00;40.50;;;;;;6137108;28;82586;-63
2022/04/10 06:27:42;;;;;;;7.75;4.43;;;23.90;40.60;;;;;;6129443;28;81948;-62
2022/04/10 06:30:45;;;;;;;8.93;4.40;;;24.00;40.40;;;;;;6141863;28;82834;-61
2022/04/10 06:33:46;;;;;;;10.38;4.95;;;24.00;40.40;;;;;;6136854;28;83202;-63
2022/04/10 06:36:46;;;;;;;8.73;4.88;;;24.00;40.80;;;;;;6137310;28;82296;-62
2022/04/10 06:39:50;;;;;;;11.27;4.78;;;24.00;41.00;;;;;;6137294;28;83270;-62
2022/04/10 06:42:54;;;;;;;8.40;4.90;;;24.00;40.40;;;;;;6120460;28;83732;-62
2022/04/10 06:45:55;;;;;;;9.27;4.30;;;24.00;40.40;;;;;;6121193;28;80445;-63
2022/04/10 06:49:03;;;;;;;11.68;4.68;;;24.00;40.50;;;;;;6137409;28;83446;-68
2022/04/10 06:52:04;;;;;;;17.02;4.55;;;24.00;40.50;;;;;;6121715;28;80456;-69
2022/04/10 06:55:11;;;;;;;9.90;4.80;;;24.00;40.20;;;;;;6129433;28;82142;-69
2022/04/10 06:58:13;;;;;;;6.82;4.28;;;24.00;40.10;;;;;;6136143;28;83543;-69
2022/04/10 07:01:15;;;;;;;7.53;4.50;;;23.90;40.20;;;;;;6131716;28;82877;-67
2022/04/10 07:04:17;;;;;;;7.38;4.10;;;23.90;40.10;;;;;;6130230;28;82339;-64
2022/04/10 07:07:18;;;;;;;10.85;4.00;;;23.90;40.00;;;;;;6129295;28;82663;-64
2022/04/10 07:10:19;;;;;;;7.30;4.05;;;23.90;40.00;;;;;;6124426;28;82495;-66
2022/04/10 07:13:20;;;;;;;5.53;3.75;;;24.00;40.30;;;;;;6120686;28;80326;-64
2022/04/10 07:16:21;;;;;;;7.55;4.45;;;24.00;40.40;;;;;;6115116;28;81820;-64
2022/04/10 07:19:22;;;;;;;9.32;4.00;;;24.00;40.10;;;;;;6113251;28;83167;-66
2022/04/10 07:25:42;;;;;;;7.60;4.00;;;24.00;39.90;;;;;;6115219;28;80684;-67
2022/04/10 07:28:43;;;;;;;8.00;4.47;;;24.00;39.70;;;;;;6134711;28;80847;-65
2022/04/10 07:31:45;;;;;;;7.68;3.85;;;24.00;39.60;;;;;;6131174;28;83309;-66
2022/04/10 07:34:47;;;;;;;6.68;3.80;;;24.00;39.90;;;;;;6128382;28;83175;-67
2022/04/10 07:38:04;;;;;;;5.72;3.83;;;24.00;39.30;;;;;;6113342;28;81996;-66
2022/04/10 07:41:05;;;;;;;6.93;3.58;;;24.00;39.40;;;;;;6111317;28;83297;-64
2022/04/10 07:44:12;;;;;;;9.23;3.65;;;24.00;39.40;;;;;;6124804;28;82428;-65
2022/04/10 07:47:25;;;;;;;7.60;4.03;;;24.00;39.30;;;;;;6122057;28;82481;-70
2022/04/10 07:50:26;;;;;;;7.38;3.58;;;23.90;39.20;;;;;;6112101;28;83114;-66
2022/04/10 07:53:26;;;;;;;8.65;4.28;;;23.90;38.80;;;;;;6118031;28;80776;-64
2022/04/10 07:56:32;;;;;;;14.50;4.23;;;23.90;38.60;;;;;;6134658;28;83740;-66
2022/04/10 07:59:35;;;;;;;9.60;3.58;;;23.90;39.10;;;;;;6110927;28;82544;-67
2022/04/10 08:02:36;;;;;;;7.72;3.60;;;23.90;39.30;;;;;;6110884;28;83143;-65
2022/04/10 08:05:37;;;;;;;6.32;3.08;;;23.90;39.50;;;;;;6132115;28;83148;-65
2022/04/10 08:08:45;;;;;;;33.55;12.05;;;23.90;39.40;;;;;;6137745;28;80198;-66
2022/04/10 08:11:45;;;;;;;60.92;25.50;;;23.90;39.80;;;;;;6134725;28;83082;-66
2022/04/10 08:14:46;;;;;;;153.90;64.60;;;23.90;39.40;;;;;;6119384;28;83912;-66
2022/04/10 08:17:46;;;;;;;154.90;67.10;;;23.90;39.20;;;;;;6131945;28;84329;-66
2022/04/10 08:20:47;;;;;;;118.38;52.65;;;23.90;39.30;;;;;;6131802;28;83252;-66
2022/04/10 08:23:47;;;;;;;109.72;46.50;;;23.90;39.50;;;;;;6119289;28;83080;-66
2022/04/10 08:26:48;;;;;;;120.22;51.67;;;23.90;39.40;;;;;;6110408;28;83462;-66
2022/04/10 08:29:48;;;;;;;158.02;72.88;;;23.90;38.70;;;;;;6109680;28;83491;-67
2022/04/10 08:32:49;;;;;;;251.18;111.18;;;23.90;38.60;;;;;;6108660;28;83157;-67
2022/04/10 08:35:49;;;;;;;245.90;109.60;;;23.90;38.40;;;;;;6107041;28;85320;-67
2022/04/10 08:38:50;;;;;;;179.23;82.28;;;23.90;38.50;;;;;;6119294;28;86445;-66
2022/04/10 08:41:50;;;;;;;194.23;78.95;;;23.90;38.50;;;;;;6133967;28;85656;-66
2022/04/10 08:44:51;;;;;;;174.90;79.90;;;23.90;38.60;;;;;;6114836;28;83011;-65
2022/04/10 08:47:51;;;;;;;153.63;69.68;;;23.90;38.60;;;;;;6130148;28;83258;-66
2022/04/10 08:50:52;;;;;;;134.13;61.50;;;23.90;38.50;;;;;;6133933;28;83419;-66
2022/04/10 08:53:52;;;;;;;135.15;59.60;;;23.90;38.40;;;;;;6133978;28;84078;-65
2022/04/10 08:56:54;;;;;;;119.00;50.85;;;23.90;38.60;;;;;;6130411;28;83987;-66
2022/04/10 08:59:55;;;;;;;109.43;49.05;;;23.90;39.10;;;;;;6130398;28;87754;-65
2022/04/10 09:02:55;;;;;;;99.38;44.50;;;23.90;38.40;;;;;;6129781;28;86484;-66
2022/04/10 09:05:56;;;;;;;95.57;43.95;;;23.90;38.40;;;;;;6128056;28;83162;-65
2022/04/10 09:08:56;;;;;;;91.13;42.22;;;23.90;38.90;;;;;;6131484;28;83271;-66
2022/04/10 09:11:57;;;;;;;91.32;40.42;;;23.90;38.10;;;;;;6131862;28;84362;-66
2022/04/10 09:14:57;;;;;;;83.03;36.72;;;23.90;38.20;;;;;;6130765;28;83244;-65
2022/04/10 09:17:58;;;;;;;80.18;34.58;;;23.90;38.10;;;;;;6131528;28;84131;-65
2022/04/10 09:20:59;;;;;;;80.47;33.22;;;23.90;38.10;;;;;;6127791;28;83437;-63
2022/04/10 09:23:59;;;;;;;64.80;30.38;;;23.90;38.10;;;;;;6126850;28;83170;-65
2022/04/10 09:27:00;;;;;;;64.45;28.13;;;23.90;38.20;;;;;;6108965;28;84206;-64
2022/04/10 09:30:00;;;;;;;64.97;28.90;;;23.90;38.10;;;;;;6120833;28;85150;-65
2022/04/10 09:33:01;;;;;;;53.45;25.02;;;24.00;38.00;;;;;;6132495;28;83237;-66
2022/04/10 09:36:02;;;;;;;58.10;26.42;;;23.90;38.10;;;;;;6132231;28;83546;-66
2022/04/10 09:39:02;;;;;;;59.50;28.05;;;24.00;38.20;;;;;;6127819;28;82807;-66
2022/04/10 09:42:03;;;;;;;60.03;27.88;;;24.00;38.30;;;;;;6131758;28;84282;-66
2022/04/10 09:45:04;;;;;;;46.97;21.70;;;24.00;38.30;;;;;;6132176;28;83208;-66
2022/04/10 09:48:04;;;;;;;49.15;21.63;;;24.00;38.60;;;;;;6132149;28;83163;-66
2022/04/10 09:51:05;;;;;;;54.30;20.58;;;24.00;38.60;;;;;;6114138;28;84064;-66
2022/04/10 09:54:05;;;;;;;49.70;19.75;;;24.00;38.70;;;;;;6114058;28;83930;-65
2022/04/10 09:57:06;;;;;;;47.05;19.35;;;24.10;38.60;;;;;;6116986;28;83548;-66
2022/04/10 10:00:07;;;;;;;40.35;17.85;;;24.00;39.00;;;;;;6108326;28;82990;-65
2022/04/10 10:03:14;;;;;;;41.55;17.00;;;24.00;39.70;;;;;;6107173;28;83155;-64
2022/04/10 10:06:15;;;;;;;51.55;22.48;;;24.10;39.30;;;;;;6125410;28;83523;-65
2022/04/10 10:09:15;;;;;;;68.07;20.73;;;24.10;39.40;;;;;;6130626;28;84321;-71
2022/04/10 10:12:16;;;;;;;65.40;23.05;;;24.00;39.00;;;;;;6132505;28;83364;-67
2022/04/10 10:15:16;;;;;;;29.67;11.23;;;23.90;37.80;;;;;;6127925;28;84273;-67
2022/04/10 10:18:17;;;;;;;24.35;8.70;;;23.30;34.00;;;;;;6131741;28;84165;-67
2022/04/10 10:21:17;;;;;;;40.97;18.65;;;22.80;34.80;;;;;;6118976;28;84865;-68
2022/04/10 10:24:18;;;;;;;40.78;19.98;;;22.90;35.30;;;;;;6128833;28;82737;-66
2022/04/10 10:27:18;;;;;;;52.10;22.83;;;22.90;35.90;;;;;;6128570;28;84003;-73
2022/04/10 10:30:20;;;;;;;42.67;23.73;;;23.10;36.90;;;;;;6127410;28;83492;-66
2022/04/10 10:33:21;;;;;;;44.83;24.23;;;23.20;36.70;;;;;;6130981;28;84875;-66
2022/04/10 10:36:22;;;;;;;40.67;21.42;;;23.40;36.40;;;;;;6127700;28;84101;-66
2022/04/10 10:39:22;;;;;;;73.20;37.13;;;23.40;36.20;;;;;;6122520;28;85959;-68
2022/04/10 10:42:23;;;;;;;128.57;78.88;;;23.50;36.20;;;;;;6124378;28;83421;-65
2022/04/10 10:45:23;;;;;;;109.00;70.40;;;23.60;36.20;;;;;;6127458;28;83499;-67
2022/04/10 10:48:24;;;;;;;110.72;66.60;;;23.50;36.80;;;;;;6107412;28;83135;-66
2022/04/10 10:51:25;;;;;;;95.60;58.60;;;23.60;37.10;;;;;;6124056;28;83333;-65
2022/04/10 10:54:26;;;;;;;81.72;48.47;;;23.60;37.10;;;;;;6120679;28;83067;-66
2022/04/10 10:57:26;;;;;;;68.43;43.05;;;23.60;36.60;;;;;;6113909;28;82853;-68
2022/04/10 11:00:27;;;;;;;57.80;36.83;;;23.60;36.40;;;;;;6107422;28;83164;-66
2022/04/10 11:03:27;;;;;;;55.15;33.45;;;23.60;36.60;;;;;;6133037;28;84135;-66
2022/04/10 11:06:28;;;;;;;50.05;30.00;;;23.70;36.60;;;;;;6125933;28;83019;-65
2022/04/10 11:09:28;;;;;;;36.22;25.73;;;23.70;36.80;;;;;;6111079;28;83096;-66
2022/04/10 11:12:29;;;;;;;39.83;23.95;;;23.80;36.80;;;;;;6111237;28;82998;-66
2022/04/10 11:15:29;;;;;;;30.38;19.48;;;23.90;36.90;;;;;;6111065;28;83218;-66
2022/04/10 11:18:30;;;;;;;31.00;18.27;;;23.90;36.60;;;;;;6125377;28;84223;-66
2022/04/10 11:21:31;;;;;;;26.75;15.68;;;23.90;36.40;;;;;;6130251;28;83721;-65
2022/04/10 11:24:31;;;;;;;20.25;13.20;;;24.00;36.70;;;;;;6131438;28;84644;-66
2022/04/10 11:27:32;;;;;;;25.38;12.95;;;24.10;36.40;;;;;;6131091;28;83071;-67
2022/04/10 11:30:33;;;;;;;32.83;11.10;;;24.10;36.90;;;;;;6126870;28;84475;-66
2022/04/10 11:33:33;;;;;;;19.67;9.77;;;24.10;37.10;;;;;;6112568;28;83323;-69
2022/04/10 11:36:34;;;;;;;17.70;8.95;;;24.10;36.60;;;;;;6126669;28;85869;-68
2022/04/10 11:39:34;;;;;;;12.60;8.18;;;24.10;36.80;;;;;;6137727;28;80498;-68
2022/04/10 11:42:35;;;;;;;12.00;6.72;;;24.20;36.70;;;;;;6120991;28;82222;-65
2022/04/10 11:45:35;;;;;;;23.92;8.15;;;24.20;36.70;;;;;;6126103;28;80711;-68
2022/04/10 11:48:36;;;;;;;13.90;6.65;;;24.20;36.60;;;;;;6124400;28;80161;-69
2022/04/10 11:51:36;;;;;;;13.65;5.63;;;24.30;36.50;;;;;;6121431;28;80506;-69
2022/04/10 11:54:38;;;;;;;9.77;5.32;;;24.30;36.40;;;;;;6126206;28;80371;-67
2022/04/10 11:57:39;;;;;;;10.30;4.80;;;24.30;36.20;;;;;;6119334;28;80591;-68
2022/04/10 12:00:39;;;;;;;9.05;4.07;;;24.30;36.10;;;;;;6127903;28;80212;-68
2022/04/10 12:03:41;;;;;;;12.45;4.45;;;24.30;35.80;;;;;;6137717;28;80331;-70
2022/04/10 12:06:42;;;;;;;8.20;3.88;;;24.40;35.50;;;;;;6136297;28;83264;-70
2022/04/10 12:09:42;;;;;;;7.15;4.00;;;24.40;35.50;;;;;;6137878;28;80237;-69
2022/04/10 12:12:43;;;;;;;6.88;4.18;;;24.40;35.50;;;;;;6127868;28;80318;-67
2022/04/10 12:15:43;;;;;;;9.15;4.32;;;24.50;35.60;;;;;;6119757;28;80899;-67
2022/04/10 12:18:44;;;;;;;5.55;3.55;;;24.40;35.40;;;;;;6120248;28;80854;-66
2022/04/10 12:21:44;;;;;;;7.75;3.72;;;24.40;35.30;;;;;;6112728;28;80421;-67
2022/04/10 12:24:45;;;;;;;5.75;3.53;;;24.50;35.20;;;;;;6127592;28;81997;-66
2022/04/10 12:27:45;;;;;;;7.22;3.75;;;24.50;35.30;;;;;;6131054;28;80326;-66
2022/04/10 12:30:46;;;;;;;5.45;3.22;;;24.50;35.50;;;;;;6119082;28;80174;-64
2022/04/10 12:33:46;;;;;;;10.60;3.42;;;24.60;35.40;;;;;;6122975;28;80193;-65
2022/04/10 12:36:47;;;;;;;10.93;3.28;;;24.60;35.60;;;;;;6125472;28;80509;-66
2022/04/10 12:39:48;;;;;;;6.88;3.45;;;24.60;36.00;;;;;;6125449;28;82009;-65
2022/04/10 12:42:48;;;;;;;5.57;3.15;;;24.70;36.10;;;;;;6123581;28;80510;-65
2022/04/10 12:45:49;;;;;;;9.60;3.60;;;24.70;36.50;;;;;;6136740;28;81051;-65
2022/04/10 12:48:49;;;;;;;9.80;3.33;;;24.70;36.90;;;;;;6136370;28;80396;-65
2022/04/10 12:51:50;;;;;;;7.63;3.00;;;24.70;36.80;;;;;;6135935;28;80571;-64
2022/04/10 12:54:52;;;;;;;6.07;3.17;;;24.70;36.90;;;;;;6119182;28;80637;-64
2022/04/10 12:57:52;;;;;;;8.43;2.83;;;24.60;37.30;;;;;;6114827;28;81383;-65
2022/04/10 13:00:54;;;;;;;9.43;2.97;;;24.60;37.90;;;;;;6136930;28;80386;-64
2022/04/10 13:03:56;;;;;;;4.75;3.10;;;24.60;38.70;;;;;;6136739;28;80791;-64
2022/04/10 13:06:57;;;;;;;8.93;4.07;;;24.60;38.30;;;;;;6130391;28;81452;-65
2022/04/10 13:09:58;;;;;;;10.82;3.13;;;24.60;38.10;;;;;;6135795;28;80295;-67
2022/04/10 13:12:58;;;;;;;9.02;3.20;;;24.60;38.00;;;;;;6135811;28;80465;-72
2022/04/10 13:16:00;;;;;;;5.40;3.00;;;24.60;37.50;;;;;;6136761;28;80881;-66
2022/04/10 13:19:01;;;;;;;4.97;2.65;;;24.60;37.80;;;;;;6136237;28;81852;-64
2022/04/10 13:22:01;;;;;;;7.43;2.95;;;24.60;38.10;;;;;;6136688;28;80086;-66
2022/04/10 13:25:02;;;;;;;4.88;2.50;;;24.60;38.10;;;;;;6135670;28;80032;-66
2022/04/10 13:28:02;;;;;;;6.50;2.50;;;24.60;37.90;;;;;;6137035;28;80389;-68
2022/04/10 13:31:03;;;;;;;4.97;2.63;;;24.60;38.50;;;;;;6114715;28;83291;-77
2022/04/10 13:34:07;;;;;;;5.95;2.75;;;24.70;38.40;;;;;;6135593;28;81555;-67
2022/04/10 13:37:07;;;;;;;4.60;2.67;;;24.70;38.50;;;;;;6135988;28;80665;-69
2022/04/10 13:40:08;;;;;;;4.93;2.60;;;24.70;38.30;;;;;;6133081;28;81518;-68
2022/04/10 13:43:08;;;;;;;6.65;2.63;;;24.70;38.20;;;;;;6134309;28;81263;-67
2022/04/10 13:46:09;;;;;;;19.50;2.42;;;24.70;38.30;;;;;;6135030;28;80624;-68
2022/04/10 13:49:09;;;;;;;4.57;2.58;;;24.70;38.20;;;;;;6124471;28;80469;-68
2022/04/10 13:52:10;;;;;;;8.63;2.65;;;24.70;38.10;;;;;;6112177;28;80948;-67
2022/04/10 13:55:10;;;;;;;5.53;2.42;;;24.70;38.00;;;;;;6112327;28;80436;-66
2022/04/10 13:58:11;;;;;;;5.07;2.78;;;24.70;38.00;;;;;;6126356;28;81332;-67
2022/04/10 14:01:11;;;;;;;4.25;2.33;;;24.70;37.90;;;;;;6130962;28;80520;-67
2022/04/10 14:04:12;;;;;;;5.97;2.38;;;24.70;37.90;;;;;;6132047;28;80472;-67
2022/04/10 14:07:12;;;;;;;6.88;2.50;;;24.70;37.80;;;;;;6134033;28;80369;-67
2022/04/10 14:10:13;;;;;;;3.67;2.20;;;24.70;37.70;;;;;;6124765;28;81454;-67
2022/04/10 14:13:13;;;;;;;3.50;2.17;;;24.70;37.50;;;;;;6111225;28;80556;-66
2022/04/10 14:16:14;;;;;;;4.55;2.17;;;24.60;37.90;;;;;;6127523;28;81440;-67
2022/04/10 14:19:14;;;;;;;5.15;2.38;;;24.70;37.80;;;;;;6133375;28;80551;-67
2022/04/10 14:22:15;;;;;;;4.25;2.38;;;24.70;37.60;;;;;;6111094;28;81288;-66
2022/04/10 14:25:15;;;;;;;4.97;2.08;;;24.70;37.60;;;;;;6119262;28;80331;-68
2022/04/10 14:28:16;;;;;;;4.47;2.47;;;24.70;37.80;;;;;;6133852;28;80864;-66
2022/04/10 14:31:17;;;;;;;3.63;2.53;;;24.70;38.00;;;;;;6133625;28;81518;-67
2022/04/10 14:34:19;;;;;;;3.63;1.95;;;24.70;38.00;;;;;;6133970;28;82969;-67
2022/04/10 14:37:19;;;;;;;7.18;2.50;;;24.70;38.10;;;;;;6137698;28;80394;-65
2022/04/10 14:40:21;;;;;;;15.00;2.60;;;24.70;37.80;;;;;;6132788;28;80673;-64
2022/04/10 14:43:22;;;;;;;27.88;12.48;;;24.70;37.70;;;;;;6128727;28;80864;-65
2022/04/10 14:46:22;;;;;;;178.02;84.13;;;24.70;37.60;;;;;;6135685;28;82798;-66
2022/04/10 14:49:23;;;;;;;337.95;151.10;;;24.60;37.40;;;;;;6135746;28;84092;-65
2022/04/10 14:52:23;;;;;;;423.55;188.23;;;24.60;37.40;;;;;;6112507;28;86837;-66
2022/04/10 14:55:24;;;;;;;356.63;151.07;;;24.60;37.40;;;;;;6132108;28;85382;-66
2022/04/10 14:58:24;;;;;;;295.95;131.90;;;24.60;37.30;;;;;;6131404;28;87607;-66
2022/04/10 15:01:25;;;;;;;256.15;116.28;;;24.60;37.40;;;;;;6130969;28;85795;-67
2022/04/10 15:04:26;;;;;;;241.10;105.55;;;24.60;37.60;;;;;;6132795;28;85346;-68
2022/04/10 15:07:26;;;;;;;210.15;95.57;;;24.60;37.30;;;;;;6114270;28;85380;-67
2022/04/10 15:10:27;;;;;;;193.68;88.28;;;24.60;37.40;;;;;;6115476;28;84244;-73
2022/04/10 15:13:31;;;;;;;175.32;77.97;;;24.60;37.30;;;;;;6135370;28;82826;-67
2022/04/10 15:16:32;;;;;;;171.20;73.03;;;24.60;37.30;;;;;;6125656;28;82929;-67
2022/04/10 15:19:33;;;;;;;155.10;71.20;;;24.60;37.50;;;;;;6111365;28;83004;-66
2022/04/10 15:22:34;;;;;;;133.93;58.65;;;24.60;37.70;;;;;;6110988;28;84118;-68
2022/04/10 15:25:34;;;;;;;129.23;54.72;;;24.60;37.60;;;;;;6130190;28;83264;-68
2022/04/10 15:28:35;;;;;;;122.88;52.47;;;24.50;37.60;;;;;;6110895;28;83099;-68
2022/04/10 15:31:35;;;;;;;107.88;47.72;;;24.50;37.40;;;;;;6118085;28;83268;-72
2022/04/10 15:34:36;;;;;;;99.75;43.53;;;24.40;37.40;;;;;;6133849;28;83112;-70
2022/04/10 15:37:36;;;;;;;95.43;39.92;;;24.40;37.30;;;;;;6120860;28;84311;-69
2022/04/10 15:40:37;;;;;;;83.70;36.42;;;24.40;37.60;;;;;;6131890;28;84667;-69